Time;durP1;ratioP1;P1;durP2;ratioP2;P2;SDS_P1;SDS_P2;PMS_P1;PMS_P2;Temp;Humidity;BMP_temperature;BMP_pressure;BME280_temperature;BME280_humidity;BME280_pressure;Samples;Min_cycle;Max_cycle;Signal;HPM_P1;HPM_P2
2021/11/25 00:00:32;;;;;;;40.17;21.23;;;;;;;-2.16;100.00;95800.69;5026695;28;20471;-73
2021/11/25 00:02:58;;;;;;;39.90;21.57;;;;;;;-2.01;100.00;95798.09;5028080;28;20462;-73
2021/11/25 00:05:25;;;;;;;42.90;22.03;;;;;;;-2.04;100.00;95795.72;5028819;28;20465;-73
2021/11/25 00:07:50;;;;;;;44.43;22.23;;;;;;;-2.04;100.00;95790.56;5023993;28;20029;-74
2021/11/25 00:10:17;;;;;;;39.33;21.40;;;;;;;-2.11;100.00;95794.41;5001534;28;20491;-73
2021/11/25 00:12:43;;;;;;;37.70;19.63;;;;;;;-2.02;100.00;95783.56;5032153;28;20057;-73
2021/11/25 00:15:10;;;;;;;38.53;19.80;;;;;;;-1.99;100.00;95785.94;5036348;28;21054;-73
2021/11/25 00:17:38;;;;;;;38.43;19.10;;;;;;;-2.03;100.00;95781.91;5023727;28;20451;-73
2021/11/25 00:20:07;;;;;;;43.50;21.43;;;;;;;-2.10;100.00;95778.88;5021256;28;20486;-74
2021/11/25 00:22:33;;;;;;;41.07;20.97;;;;;;;-2.17;100.00;95770.69;5026783;28;20462;-73
2021/11/25 00:25:00;;;;;;;36.37;18.30;;;;;;;-2.06;100.00;95771.78;5014236;28;20455;-73
2021/11/25 00:27:25;;;;;;;41.77;20.07;;;;;;;-2.16;100.00;95763.78;5024284;28;20444;-73
2021/11/25 00:29:51;;;;;;;38.77;20.90;;;;;;;-2.10;100.00;95765.19;5023423;28;20594;-73
2021/11/25 00:32:17;;;;;;;40.50;22.40;;;;;;;-2.02;100.00;95765.53;5023826;28;20044;-73
2021/11/25 00:34:44;;;;;;;37.63;19.23;;;;;;;-1.87;100.00;95766.34;5030033;28;20083;-73
2021/11/25 00:37:09;;;;;;;34.00;19.33;;;;;;;-1.93;100.00;95760.63;5018580;28;20033;-73
2021/11/25 00:39:35;;;;;;;36.13;18.67;;;;;;;-1.97;100.00;95760.94;5030608;28;20470;-73
2021/11/25 00:42:01;;;;;;;33.07;17.87;;;;;;;-1.97;100.00;95758.34;5024793;28;20038;-73
2021/11/25 00:44:26;;;;;;;36.33;18.23;;;;;;;-1.99;100.00;95755.84;5025786;28;20041;-73
2021/11/25 00:46:52;;;;;;;34.07;18.70;;;;;;;-1.94;100.00;95760.75;5021855;28;20029;-73
2021/11/25 00:49:18;;;;;;;34.50;18.57;;;;;;;-1.94;100.00;95755.59;5022821;28;20501;-73
2021/11/25 00:51:43;;;;;;;31.83;17.40;;;;;;;-1.93;100.00;95752.09;5005974;28;20064;-74
2021/11/25 00:54:09;;;;;;;33.80;19.13;;;;;;;-1.91;100.00;95761.38;5018728;28;20025;-73
2021/11/25 00:56:35;;;;;;;32.93;18.07;;;;;;;-1.90;100.00;95757.06;5026469;28;20123;-73
2021/11/25 00:59:01;;;;;;;33.60;19.53;;;;;;;-2.01;100.00;95750.00;5029355;28;20021;-73
2021/11/25 01:01:26;;;;;;;32.30;18.13;;;;;;;-1.99;100.00;95742.16;5037350;28;20475;-73
2021/11/25 01:03:52;;;;;;;31.17;17.27;;;;;;;-2.05;100.00;95745.91;5025806;28;20159;-74
2021/11/25 01:06:18;;;;;;;29.60;16.40;;;;;;;-1.98;100.00;95744.66;5027291;28;20041;-73
2021/11/25 01:08:43;;;;;;;28.00;15.07;;;;;;;-1.98;100.00;95744.66;5014718;28;20100;-74
2021/11/25 01:11:10;;;;;;;29.87;16.43;;;;;;;-1.92;100.00;95746.00;5024823;28;20490;-74
2021/11/25 01:13:36;;;;;;;32.53;16.30;;;;;;;-2.00;100.00;95746.47;5017640;28;20056;-73
2021/11/25 01:16:02;;;;;;;30.53;17.70;;;;;;;-1.93;100.00;95752.09;5021030;28;20980;-73
2021/11/25 01:18:28;;;;;;;30.00;14.93;;;;;;;-1.91;100.00;95747.69;5012329;28;20456;-74
2021/11/25 01:20:54;;;;;;;29.20;16.77;;;;;;;-1.96;100.00;95741.97;5027134;28;20834;-73
2021/11/25 01:23:24;;;;;;;31.00;16.23;;;;;;;-2.11;100.00;95743.75;5028819;28;20060;-73
2021/11/25 01:25:52;;;;;;;31.50;16.57;;;;;;;-2.04;100.00;95731.31;5004740;28;21059;-73
2021/11/25 01:28:19;;;;;;;28.47;17.00;;;;;;;-1.96;100.00;95735.06;5023114;28;20428;-73
2021/11/25 01:30:49;;;;;;;26.70;16.07;;;;;;;-2.08;100.00;95722.09;5027448;28;20472;-74
2021/11/25 01:33:15;;;;;;;30.67;16.00;;;;;;;-1.98;100.00;95716.31;5027804;28;20573;-73
2021/11/25 01:35:42;;;;;;;32.93;16.03;;;;;;;-1.96;100.00;95717.03;5022209;28;20456;-74
2021/11/25 01:38:09;;;;;;;31.07;16.40;;;;;;;-2.02;100.00;95716.56;5025862;28;21025;-73
2021/11/25 01:40:37;;;;;;;28.53;16.43;;;;;;;-2.10;100.00;95718.81;5024634;28;20820;-74
2021/11/25 01:43:04;;;;;;;30.27;17.03;;;;;;;-2.06;100.00;95721.09;5028465;28;21247;-74
2021/11/25 01:45:30;;;;;;;33.60;17.23;;;;;;;-2.06;100.00;95715.13;5017275;28;20448;-73
2021/11/25 01:47:57;;;;;;;33.33;17.40;;;;;;;-2.05;100.00;95721.91;5011673;28;21328;-73
2021/11/25 01:50:24;;;;;;;29.90;15.80;;;;;;;-2.02;100.00;95712.25;5019127;28;20476;-73
2021/11/25 01:52:51;;;;;;;32.17;17.60;;;;;;;-2.14;100.00;95710.44;5021472;28;20558;-73
2021/11/25 01:55:20;;;;;;;35.30;20.03;;;;;;;-2.17;100.00;95708.06;5015864;28;20468;-73
2021/11/25 01:57:47;;;;;;;33.00;18.30;;;;;;;-2.13;100.00;95704.38;5021705;28;20444;-73
2021/11/25 02:00:31;;;;;;;35.57;17.90;;;;;;;-2.14;100.00;95693.22;5027466;28;20480;-73
2021/11/25 02:02:59;;;;;;;33.50;16.83;;;;;;;-2.08;100.00;95691.19;5015911;28;20606;-73
2021/11/25 02:05:25;;;;;;;30.33;16.83;;;;;;;-2.05;100.00;95688.41;5038753;28;20034;-73
2021/11/25 02:07:51;;;;;;;35.13;17.27;;;;;;;-2.07;100.00;95687.72;5015126;28;20533;-73
2021/11/25 02:10:17;;;;;;;33.43;16.43;;;;;;;-1.98;100.00;95687.09;5022356;28;20041;-73
2021/11/25 02:12:43;;;;;;;36.43;18.57;;;;;;;-1.95;100.00;95685.16;5024934;28;20444;-73
2021/11/25 02:15:11;;;;;;;38.30;18.03;;;;;;;-1.97;100.00;95688.78;5026553;28;20467;-73
2021/11/25 02:17:37;;;;;;;33.00;17.73;;;;;;;-1.92;100.00;95687.56;5021119;28;20049;-74
2021/11/25 02:20:06;;;;;;;38.23;19.97;;;;;;;-2.02;100.00;95685.66;5023104;28;20531;-73
2021/11/25 02:22:32;;;;;;;33.50;18.20;;;;;;;-2.06;100.00;95677.28;5023273;28;20554;-73
2021/11/25 02:24:58;;;;;;;31.40;16.63;;;;;;;-1.95;100.00;95668.88;5037381;28;20483;-73
2021/11/25 02:27:24;;;;;;;33.43;17.73;;;;;;;-1.98;100.00;95675.06;5050551;28;20785;-73
2021/11/25 02:29:50;;;;;;;36.93;17.77;;;;;;;-2.04;100.00;95666.91;5008109;28;20144;-73
2021/11/25 02:32:28;;;;;;;35.00;16.93;;;;;;;-1.89;100.00;95665.91;5035409;28;20037;-73
2021/11/25 02:34:53;;;;;;;35.03;17.23;;;;;;;-1.92;100.00;95660.97;5024515;28;20037;-73
2021/11/25 02:37:20;;;;;;;34.80;17.03;;;;;;;-2.07;100.00;95659.38;5011721;28;20468;-73
2021/11/25 02:39:47;;;;;;;33.63;16.87;;;;;;;-2.01;100.00;95662.38;5013884;28;20059;-73
2021/11/25 02:42:12;;;;;;;36.63;18.43;;;;;;;-2.00;100.00;95655.47;5028225;28;20482;-73
2021/11/25 02:44:38;;;;;;;36.70;17.47;;;;;;;-2.03;100.00;95647.94;5008499;28;20469;-73
2021/11/25 02:47:04;;;;;;;30.47;16.50;;;;;;;-1.98;100.00;95636.44;5018518;28;20049;-73
2021/11/25 02:49:29;;;;;;;35.93;18.07;;;;;;;-1.98;100.00;95640.72;5016022;28;20375;-74
2021/11/25 02:51:55;;;;;;;35.40;18.10;;;;;;;-1.96;100.00;95644.06;5020414;28;20675;-73
2021/11/25 02:54:21;;;;;;;36.93;18.47;;;;;;;-1.91;100.00;95642.84;5021411;28;20079;-74
2021/11/25 02:56:48;;;;;;;36.80;18.13;;;;;;;-1.80;100.00;95637.00;5021612;28;20045;-74
2021/11/25 02:59:13;;;;;;;32.80;17.07;;;;;;;-1.77;100.00;95635.97;5014546;28;20017;-73
2021/11/25 03:01:39;;;;;;;32.37;16.97;;;;;;;-1.75;100.00;95634.94;5015099;28;20432;-73
2021/11/25 03:04:15;;;;;;;31.77;16.07;;;;;;;-1.75;100.00;95634.94;5015489;28;20020;-74
2021/11/25 03:06:51;;;;;;;30.87;16.47;;;;;;;-1.63;100.00;95627.34;5019841;28;20034;-73
2021/11/25 03:09:18;;;;;;;32.23;16.30;;;;;;;-1.70;100.00;95621.75;5010662;28;20522;-73
2021/11/25 03:11:45;;;;;;;26.57;15.27;;;;;;;-1.65;100.00;95619.69;5035215;28;20022;-73
2021/11/25 03:14:10;;;;;;;29.27;15.70;;;;;;;-1.71;100.00;95622.66;5018429;28;20460;-74
2021/11/25 03:16:37;;;;;;;26.03;13.97;;;;;;;-1.81;100.00;95614.72;5016421;28;20464;-73
2021/11/25 03:19:03;;;;;;;28.93;16.07;;;;;;;-1.82;100.00;95620.78;5018018;28;20040;-74
2021/11/25 03:21:29;;;;;;;28.13;13.50;;;;;;;-1.73;100.00;95614.22;5015011;28;20548;-73
2021/11/25 03:23:56;;;;;;;27.87;15.90;;;;;;;-1.72;100.00;95615.88;5018407;28;20468;-74
2021/11/25 03:26:25;;;;;;;34.23;16.17;;;;;;;-1.71;100.00;95612.34;5016279;28;20456;-74
2021/11/25 03:28:51;;;;;;;27.67;15.23;;;;;;;-1.76;100.00;95610.09;5019417;28;20567;-74
2021/11/25 03:31:21;;;;;;;27.07;14.80;;;;;;;-1.73;100.00;95611.66;5016623;28;20905;-74
2021/11/25 03:33:47;;;;;;;30.67;16.43;;;;;;;-1.70;100.00;95614.84;5023195;28;20029;-74
2021/11/25 03:36:13;;;;;;;29.23;15.60;;;;;;;-1.68;100.00;95609.59;5027505;28;21046;-74
2021/11/25 03:38:39;;;;;;;31.83;16.03;;;;;;;-1.67;100.00;95619.00;5012685;28;20564;-73
2021/11/25 03:41:08;;;;;;;28.70;15.27;;;;;;;-1.60;100.00;95611.69;5023946;28;20503;-74
2021/11/25 03:43:34;;;;;;;27.80;14.73;;;;;;;-1.60;100.00;95609.09;5024571;28;20467;-73
2021/11/25 03:46:00;;;;;;;22.00;13.27;;;;;;;-1.60;100.00;95601.38;5019071;28;20480;-74
2021/11/25 03:48:29;;;;;;;25.40;13.93;;;;;;;-1.57;100.00;95606.31;5024383;28;20465;-73
2021/11/25 03:50:57;;;;;;;26.80;15.43;;;;;;;-1.52;100.00;95612.00;5016477;28;20092;-74
2021/11/25 03:53:23;;;;;;;27.97;14.73;;;;;;;-1.57;100.00;95607.16;5020721;28;20458;-73
2021/11/25 03:55:49;;;;;;;26.90;13.83;;;;;;;-1.56;100.00;95608.78;5020193;28;20522;-73
2021/11/25 03:58:14;;;;;;;27.00;13.03;;;;;;;-1.57;100.00;95606.31;5023789;28;20033;-73
2021/11/25 04:00:40;;;;;;;24.00;13.93;;;;;;;-1.51;100.00;95595.59;4999489;28;20056;-74
2021/11/25 04:03:06;;;;;;;24.70;13.60;;;;;;;-1.57;100.00;95599.41;5024870;28;20037;-73
2021/11/25 04:05:32;;;;;;;25.23;14.07;;;;;;;-1.53;100.00;95595.69;5028389;28;20048;-73
2021/11/25 04:07:58;;;;;;;25.70;13.70;;;;;;;-1.71;100.00;95590.00;5020672;28;20447;-73
2021/11/25 04:10:25;;;;;;;25.87;14.83;;;;;;;-1.70;100.00;95593.41;5032719;28;20558;-73
2021/11/25 04:12:50;;;;;;;29.47;15.13;;;;;;;-1.68;100.00;95594.13;5010331;28;20491;-73
2021/11/25 04:15:17;;;;;;;26.83;14.93;;;;;;;-1.71;100.00;95594.31;5007607;28;20934;-73
2021/11/25 04:17:43;;;;;;;27.57;16.07;;;;;;;-1.76;100.00;95586.06;5033175;28;20038;-74
2021/11/25 04:20:10;;;;;;;28.17;15.17;;;;;;;-1.76;100.00;95583.50;5032377;28;20464;-74
2021/11/25 04:22:36;;;;;;;27.47;14.93;;;;;;;-1.66;100.00;95580.22;5017292;28;20476;-73
2021/11/25 04:25:03;;;;;;;27.10;15.67;;;;;;;-1.70;100.00;95577.94;5033322;28;20546;-73
2021/11/25 04:27:29;;;;;;;29.80;15.63;;;;;;;-1.54;100.00;95575.16;5018866;28;20496;-74
2021/11/25 04:30:50;;;;;;;27.17;13.67;;;;;;;-1.62;100.00;95575.66;5045471;28;20860;-74
2021/11/25 04:35:30;;;;;;;26.97;13.93;;;;;;;-1.58;100.00;95576.28;5027883;28;20520;-73
2021/11/25 04:38:09;;;;;;;28.33;15.40;;;;;;;-1.56;100.00;95571.88;5023698;28;20495;-74
2021/11/25 04:40:39;;;;;;;29.57;16.53;;;;;;;-1.51;100.00;95572.38;5031256;28;20498;-73
2021/11/25 04:43:06;;;;;;;27.93;15.63;;;;;;;-1.52;100.00;95563.00;5026399;28;20479;-73
2021/11/25 04:45:33;;;;;;;26.57;14.13;;;;;;;-1.45;100.00;95566.81;5025595;28;20515;-73
2021/11/25 04:48:00;;;;;;;25.20;14.00;;;;;;;-1.46;100.00;95570.34;5044805;28;20455;-73
2021/11/25 04:50:26;;;;;;;25.53;14.47;;;;;;;-1.49;100.00;95566.19;5009470;28;20489;-73
2021/11/25 04:52:52;;;;;;;27.93;14.63;;;;;;;-1.51;100.00;95567.22;5019207;28;20522;-74
2021/11/25 04:55:18;;;;;;;25.43;15.10;;;;;;;-1.52;100.00;95563.81;5029304;28;20471;-73
2021/11/25 04:57:44;;;;;;;24.63;14.23;;;;;;;-1.55;100.00;95564.03;5039409;28;20041;-74
2021/11/25 05:00:11;;;;;;;26.37;14.83;;;;;;;-1.55;100.00;95563.19;5025819;28;20469;-73
2021/11/25 05:02:37;;;;;;;28.00;15.93;;;;;;;-1.60;100.00;95563.50;5057008;28;20494;-73
2021/11/25 05:05:05;;;;;;;24.27;13.80;;;;;;;-1.69;100.00;95566.69;5040500;28;20440;-74
2021/11/25 05:07:30;;;;;;;29.87;16.43;;;;;;;-1.55;100.00;95560.63;5009845;28;20112;-74
2021/11/25 05:09:56;;;;;;;27.97;15.83;;;;;;;-1.56;100.00;95564.13;5018727;28;21236;-74
2021/11/25 05:12:22;;;;;;;29.27;16.40;;;;;;;-1.63;100.00;95555.16;5022787;28;20514;-73
2021/11/25 05:14:48;;;;;;;25.63;14.30;;;;;;;-1.58;100.00;95553.09;5031799;28;20549;-73
2021/11/25 05:17:13;;;;;;;25.50;14.27;;;;;;;-1.61;100.00;95561.03;5015763;28;20038;-74
2021/11/25 05:19:39;;;;;;;26.70;14.87;;;;;;;-1.55;100.00;95556.28;5009599;28;20487;-74
2021/11/25 05:22:05;;;;;;;27.90;16.07;;;;;;;-1.53;100.00;95559.59;5024728;28;20037;-73
2021/11/25 05:24:31;;;;;;;25.10;14.90;;;;;;;-1.51;100.00;95562.91;5030958;28;20025;-73
2021/11/25 05:26:56;;;;;;;30.00;16.13;;;;;;;-1.48;100.00;95567.03;5025605;28;20044;-73
2021/11/25 05:29:22;;;;;;;29.47;16.73;;;;;;;-1.51;100.00;95565.50;5033502;28;20029;-74
2021/11/25 05:31:49;;;;;;;32.23;16.83;;;;;;;-1.60;100.00;95555.78;5026673;28;20479;-74
2021/11/25 05:34:18;;;;;;;39.63;18.30;;;;;;;-1.21;100.00;95565.19;5008486;28;20547;-73
2021/11/25 05:36:45;;;;;;;29.77;17.67;;;;;;;-1.43;100.00;95557.22;5019396;28;20954;-73
2021/11/25 05:39:12;;;;;;;26.43;15.00;;;;;;;-1.46;100.00;95560.00;5022869;28;20452;-73
2021/11/25 05:41:39;;;;;;;29.07;15.93;;;;;;;-1.47;100.00;95559.19;5026891;28;20483;-73
2021/11/25 05:44:07;;;;;;;29.37;16.53;;;;;;;-1.48;100.00;95561.84;5023991;28;20471;-73
2021/11/25 05:46:34;;;;;;;29.83;16.17;;;;;;;-1.50;100.00;95559.41;5027894;28;20456;-73
2021/11/25 05:49:00;;;;;;;27.70;15.83;;;;;;;-1.45;100.00;95547.00;5022785;28;20872;-73
2021/11/25 05:51:25;;;;;;;28.57;15.97;;;;;;;-1.42;100.00;95551.97;5014079;28;20473;-73
2021/11/25 05:53:51;;;;;;;28.37;17.07;;;;;;;-1.39;100.00;95545.78;5022702;28;20519;-73
2021/11/25 05:56:17;;;;;;;31.47;16.67;;;;;;;-1.39;100.00;95544.97;5042760;28;20642;-73
2021/11/25 05:58:43;;;;;;;25.93;14.97;;;;;;;-1.43;100.00;95541.75;5028757;28;20044;-73
2021/11/25 06:01:10;;;;;;;24.43;14.73;;;;;;;-1.39;100.00;95547.53;5018738;28;20112;-73
2021/11/25 06:03:35;;;;;;;27.60;14.73;;;;;;;-1.47;100.00;95548.88;5019674;28;20460;-73
2021/11/25 06:06:01;;;;;;;30.67;16.93;;;;;;;-1.41;100.00;95542.47;5030455;28;20439;-73
2021/11/25 06:08:27;;;;;;;26.50;15.30;;;;;;;-1.42;100.00;95553.72;5023729;28;20560;-73
2021/11/25 06:10:53;;;;;;;29.47;15.60;;;;;;;-1.36;100.00;95560.22;5029421;28;20069;-74
2021/11/25 06:13:19;;;;;;;27.73;15.63;;;;;;;-1.34;100.00;95556.63;5021025;28;20037;-74
2021/11/25 06:15:47;;;;;;;26.30;14.93;;;;;;;-1.33;100.00;95553.09;5027577;28;20653;-74
2021/11/25 06:18:14;;;;;;;27.50;16.27;;;;;;;-1.31;100.00;95556.44;5006488;28;20455;-74
2021/11/25 06:20:39;;;;;;;31.40;16.47;;;;;;;-1.40;100.00;95557.03;5026115;28;20600;-73
2021/11/25 06:23:06;;;;;;;27.03;16.10;;;;;;;-1.41;100.00;95557.94;5030548;28;20467;-74
2021/11/25 06:25:32;;;;;;;28.83;16.10;;;;;;;-1.47;100.00;95568.69;5025265;28;20629;-74
2021/11/25 06:27:58;;;;;;;25.30;16.43;;;;;;;-1.47;100.00;95560.97;5034634;28;20451;-73
2021/11/25 06:30:24;;;;;;;25.63;15.40;;;;;;;-1.45;100.00;95566.81;5013470;28;20468;-73
2021/11/25 06:32:51;;;;;;;28.43;14.97;;;;;;;-1.43;100.00;95554.66;5029261;28;20056;-73
2021/11/25 06:35:19;;;;;;;31.30;17.30;;;;;;;-1.52;100.00;95568.16;5018708;28;20486;-73
2021/11/25 06:37:55;;;;;;;30.50;16.70;;;;;;;-1.58;100.00;95571.13;5030523;28;20432;-73
2021/11/25 06:40:27;;;;;;;27.50;15.43;;;;;;;-1.57;100.00;95577.97;5006645;28;20475;-74
2021/11/25 06:42:54;;;;;;;29.53;16.33;;;;;;;-1.51;100.00;95567.22;5028894;28;20476;-73
2021/11/25 06:45:20;;;;;;;29.60;16.67;;;;;;;-1.45;100.00;95570.22;5032226;28;20520;-74
2021/11/25 06:47:47;;;;;;;29.83;16.70;;;;;;;-1.45;100.00;95566.81;5023470;28;20993;-73
2021/11/25 06:50:14;;;;;;;27.93;16.63;;;;;;;-1.42;100.00;95571.78;5032257;28;20539;-74
2021/11/25 06:52:40;;;;;;;27.67;17.40;;;;;;;-1.43;100.00;95570.94;5025601;28;20552;-73
2021/11/25 06:55:07;;;;;;;37.77;20.17;;;;;;;-1.47;100.00;95572.09;5038862;28;20458;-74
2021/11/25 06:57:34;;;;;;;29.93;16.83;;;;;;;-1.43;100.00;95580.44;5028447;28;20505;-74
2021/11/25 07:00:00;;;;;;;26.33;15.80;;;;;;;-1.44;100.00;95584.78;5030666;28;20447;-73
2021/11/25 07:02:26;;;;;;;29.10;16.67;;;;;;;-1.43;100.00;95577.88;5021103;28;20583;-73
2021/11/25 07:04:51;;;;;;;27.40;15.77;;;;;;;-1.39;100.00;95587.03;5037645;28;20531;-73
2021/11/25 07:07:17;;;;;;;24.97;14.47;;;;;;;-1.33;100.00;95584.06;5033655;28;20067;-73
2021/11/25 07:09:44;;;;;;;29.23;16.10;;;;;;;-1.33;100.00;95594.38;5031212;28;20042;-74
2021/11/25 07:12:09;;;;;;;25.13;14.50;;;;;;;-1.30;100.00;95591.59;5028631;28;20482;-74
2021/11/25 07:14:35;;;;;;;28.03;16.60;;;;;;;-1.32;100.00;95593.44;5029549;28;20037;-73
2021/11/25 07:17:01;;;;;;;30.70;16.77;;;;;;;-1.33;100.00;95596.97;5032102;28;20025;-74
2021/11/25 07:19:28;;;;;;;28.90;15.80;;;;;;;-1.34;100.00;95589.31;5012076;28;20386;-74
2021/11/25 07:21:53;;;;;;;24.67;15.00;;;;;;;-1.29;100.00;95587.25;5015551;28;20045;-74
2021/11/25 07:24:19;;;;;;;26.57;14.93;;;;;;;-1.38;100.00;95582.72;5012988;28;20517;-73
2021/11/25 07:26:45;;;;;;;27.37;16.23;;;;;;;-1.32;100.00;95574.56;5016308;28;20052;-73
2021/11/25 07:29:10;;;;;;;27.57;14.87;;;;;;;-1.29;100.00;95577.75;5021964;28;20022;-73
2021/11/25 07:31:36;;;;;;;27.80;14.40;;;;;;;-1.33;100.00;95562.59;5034132;28;20111;-74
2021/11/25 07:34:02;;;;;;;30.93;16.40;;;;;;;-1.31;100.00;95556.44;5000865;28;20088;-74
2021/11/25 07:36:28;;;;;;;27.10;15.03;;;;;;;-1.35;100.00;95564.44;5010966;28;20038;-73
2021/11/25 07:38:54;;;;;;;26.40;13.67;;;;;;;-1.39;100.00;95566.41;5033557;28;20030;-74
2021/11/25 07:41:22;;;;;;;28.47;16.77;;;;;;;-1.38;100.00;95562.06;5038552;28;20062;-73
2021/11/25 07:43:48;;;;;;;26.43;14.80;;;;;;;-1.35;100.00;95567.84;5016974;28;20049;-73
2021/11/25 07:46:20;;;;;;;29.73;15.33;;;;;;;-1.35;100.00;95572.19;5041861;28;20443;-73
2021/11/25 07:48:47;;;;;;;29.53;15.63;;;;;;;-1.26;100.00;95574.16;5029354;28;20599;-73
2021/11/25 07:51:13;;;;;;;28.97;15.73;;;;;;;-1.27;100.00;95575.91;5019416;28;20530;-73
2021/11/25 07:53:39;;;;;;;30.10;16.43;;;;;;;-1.24;100.00;95567.97;5038555;28;20834;-73
2021/11/25 07:56:05;;;;;;;27.43;15.53;;;;;;;-1.25;100.00;95576.63;5013408;28;20092;-73
2021/11/25 07:58:30;;;;;;;29.93;16.80;;;;;;;-1.24;100.00;95587.75;5031559;28;20030;-74
2021/11/25 08:00:57;;;;;;;29.57;15.93;;;;;;;-1.27;100.00;95591.41;5011119;28;20785;-74
2021/11/25 08:03:23;;;;;;;30.33;16.63;;;;;;;-1.19;100.00;95591.69;5031960;28;20038;-74
2021/11/25 08:05:49;;;;;;;30.83;16.30;;;;;;;-1.12;100.00;95588.69;5026634;28;20444;-73
2021/11/25 08:08:15;;;;;;;30.43;16.83;;;;;;;-1.23;100.00;95587.66;5021844;28;20488;-74
2021/11/25 08:10:41;;;;;;;29.23;15.43;;;;;;;-1.16;100.00;95595.81;5033135;28;20152;-74
2021/11/25 08:13:08;;;;;;;28.03;15.00;;;;;;;-1.13;100.00;95589.63;5034887;28;20175;-74
2021/11/25 08:15:34;;;;;;;29.43;15.33;;;;;;;-1.08;100.00;95578.06;5030068;28;20877;-74
2021/11/25 08:18:01;;;;;;;28.57;14.47;;;;;;;-1.09;100.00;95573.84;5026087;28;20485;-73
2021/11/25 08:20:27;;;;;;;27.20;14.73;;;;;;;-1.11;100.00;95564.53;5022886;28;20949;-73
2021/11/25 08:22:53;;;;;;;27.23;14.83;;;;;;;-1.13;100.00;95562.09;5051915;28;20528;-74
2021/11/25 08:25:22;;;;;;;27.20;14.30;;;;;;;-1.02;100.00;95558.75;5020894;28;20533;-73
2021/11/25 08:27:50;;;;;;;26.10;14.33;;;;;;;-1.09;100.00;95570.44;5034387;28;20531;-74
2021/11/25 08:30:16;;;;;;;26.43;15.17;;;;;;;-1.00;100.00;95568.06;5027540;28;20496;-73
2021/11/25 08:32:43;;;;;;;27.97;14.93;;;;;;;-1.02;100.00;95556.19;5032569;28;20555;-74
2021/11/25 08:35:09;;;;;;;34.63;18.63;;;;;;;-1.14;100.00;95559.59;5031518;28;20109;-73
2021/11/25 08:37:38;;;;;;;37.20;20.97;;;;;;;-1.19;100.00;95547.00;5022095;28;20460;-74
2021/11/25 08:40:04;;;;;;;38.83;23.67;;;;;;;-1.11;100.00;95549.06;5038205;28;20835;-74
2021/11/25 08:42:30;;;;;;;32.60;17.87;;;;;;;-0.99;100.00;95543.06;5027233;28;20479;-74
2021/11/25 08:44:56;;;;;;;27.20;14.13;;;;;;;-1.07;100.00;95548.75;5029148;28;20444;-74
2021/11/25 08:47:22;;;;;;;27.60;15.60;;;;;;;-1.04;100.00;95548.56;5023255;28;20468;-73
2021/11/25 08:49:51;;;;;;;25.57;14.47;;;;;;;-0.97;100.00;95560.09;5029151;28;20472;-74
2021/11/25 08:52:17;;;;;;;26.23;15.13;;;;;;;-1.14;100.00;95555.28;5037771;28;20869;-73
2021/11/25 08:54:43;;;;;;;27.70;17.93;;;;;;;-1.04;100.00;95553.72;5029613;28;20476;-73
2021/11/25 08:57:09;;;;;;;28.97;15.87;;;;;;;-1.13;100.00;95550.94;5022884;28;20601;-74
2021/11/25 08:59:35;;;;;;;27.07;16.03;;;;;;;-1.20;100.00;95547.94;5016585;28;20104;-74
2021/11/25 09:02:01;;;;;;;27.73;15.27;;;;;;;-1.03;100.00;95547.63;5033838;28;20037;-74
2021/11/25 09:04:27;;;;;;;38.93;21.73;;;;;;;-1.03;100.00;95547.63;5013341;28;21127;-74
2021/11/25 09:06:54;;;;;;;33.53;17.67;;;;;;;-1.00;100.00;95549.16;5021633;28;20544;-74
2021/11/25 09:09:21;;;;;;;27.23;14.67;;;;;;;-0.97;100.00;95551.53;5024292;28;20829;-74
2021/11/25 09:11:46;;;;;;;25.40;13.97;;;;;;;-0.96;100.00;95543.69;5030521;28;20457;-74
2021/11/25 09:14:13;;;;;;;27.23;15.07;;;;;;;-0.98;100.00;95545.53;5022962;28;20512;-74
2021/11/25 09:16:38;;;;;;;28.43;14.53;;;;;;;-0.92;100.00;95546.06;5034448;28;20041;-74
2021/11/25 09:19:05;;;;;;;29.83;16.40;;;;;;;-0.83;100.00;95546.25;5036452;28;20868;-74
2021/11/25 09:21:31;;;;;;;28.97;15.97;;;;;;;-0.84;100.00;95544.59;5036509;28;20035;-74
2021/11/25 09:23:58;;;;;;;26.07;14.07;;;;;;;-0.84;100.00;95536.00;5032230;28;20570;-75
2021/11/25 09:26:24;;;;;;;29.30;14.83;;;;;;;-0.99;100.00;95543.06;5003416;28;20113;-74
2021/11/25 09:28:50;;;;;;;27.90;14.83;;;;;;;-0.93;100.00;95550.41;5032711;28;20564;-74
2021/11/25 09:31:18;;;;;;;29.67;15.73;;;;;;;-1.04;100.00;95555.44;5027928;28;20030;-74
2021/11/25 09:33:45;;;;;;;29.40;15.13;;;;;;;-0.95;100.00;95552.25;5034630;28;20484;-74
2021/11/25 09:36:10;;;;;;;28.40;14.87;;;;;;;-1.13;100.00;95554.34;5013577;28;20520;-74
2021/11/25 09:38:37;;;;;;;31.33;16.10;;;;;;;-1.05;100.00;95548.66;5021120;28;20498;-74
2021/11/25 09:41:03;;;;;;;28.87;15.57;;;;;;;-0.96;100.00;95550.59;5035626;28;20044;-75
2021/11/25 09:43:28;;;;;;;31.33;15.77;;;;;;;-0.76;100.00;95551.81;5019401;28;20479;-75
2021/11/25 09:45:55;;;;;;;30.47;15.20;;;;;;;-0.83;100.00;95555.75;5026697;28;20456;-74
2021/11/25 09:48:25;;;;;;;29.00;15.80;;;;;;;-0.89;100.00;95551.81;5027412;28;20384;-74
2021/11/25 09:50:54;;;;;;;28.30;15.20;;;;;;;-0.81;100.00;95565.00;5035284;28;21077;-74
2021/11/25 09:53:24;;;;;;;33.27;16.07;;;;;;;-0.89;100.00;95564.72;5019473;28;20495;-74
2021/11/25 09:55:52;;;;;;;27.97;15.40;;;;;;;-0.88;100.00;95568.94;5028822;28;20504;-74
2021/11/25 09:58:24;;;;;;;28.07;14.33;;;;;;;-0.85;100.00;95560.19;5025126;28;21007;-74
2021/11/25 10:00:59;;;;;;;29.23;15.77;;;;;;;-0.65;100.00;95563.97;5032859;28;20534;-74
2021/11/25 10:03:25;;;;;;;27.30;14.73;;;;;;;-0.72;100.00;95566.97;5019877;28;20468;-74
2021/11/25 10:05:53;;;;;;;32.20;17.53;;;;;;;-0.65;100.00;95563.97;5026051;28;20455;-73
2021/11/25 10:08:28;;;;;;;32.03;16.60;;;;;;;-0.70;100.00;95559.13;5018734;28;20040;-74
2021/11/25 10:11:14;;;;;;;40.47;22.60;;;;;;;-0.58;100.00;95558.25;5032828;28;20878;-75
2021/11/25 10:13:43;;;;;;;27.37;14.20;;;;;;;-0.56;100.00;95561.56;5022702;28;20881;-75
2021/11/25 10:16:12;;;;;;;26.87;15.00;;;;;;;-0.43;100.00;95565.88;5024297;28;20496;-74
2021/11/25 10:18:39;;;;;;;27.80;15.47;;;;;;;-0.49;100.00;95567.94;5036539;28;20457;-75
2021/11/25 10:21:14;;;;;;;32.43;16.83;;;;;;;-0.49;100.00;95556.78;5024974;28;20456;-74
2021/11/25 10:23:40;;;;;;;30.13;15.93;;;;;;;-0.63;100.00;95551.78;5041678;28;20504;-75
2021/11/25 10:26:10;;;;;;;31.33;16.07;;;;;;;-0.62;100.00;95551.66;5014608;28;20456;-74
2021/11/25 10:28:40;;;;;;;31.30;16.27;;;;;;;-0.59;100.00;95558.38;5017780;28;20448;-74
2021/11/25 10:31:20;;;;;;;24.73;13.23;;;;;;;-0.54;100.00;95559.72;5028681;28;20669;-74
2021/11/25 10:34:05;;;;;;;31.23;16.23;;;;;;;-0.58;100.00;95557.44;5014484;28;20472;-74
2021/11/25 10:42:00;;;;;;;33.50;15.13;;;;;;;-0.63;100.00;95547.44;5032207;28;20708;-75
2021/11/25 10:44:27;;;;;;;26.60;15.07;;;;;;;-0.52;100.00;95537.16;5002397;28;20510;-74
2021/11/25 10:46:55;;;;;;;36.03;17.83;;;;;;;-0.53;100.00;95537.28;5035163;28;21031;-75
2021/11/25 10:49:36;;;;;;;27.03;15.43;;;;;;;-0.38;100.00;95532.78;5023708;28;20502;-76
2021/11/25 10:52:13;;;;;;;25.87;15.13;;;;;;;-0.63;100.00;95531.94;5026987;28;20463;-74
2021/11/25 10:54:49;;;;;;;78.03;41.77;;;;;;;-0.57;100.00;95523.75;5027852;28;20472;-75
2021/11/25 10:57:16;;;;;;;38.07;20.47;;;;;;;-0.36;100.00;95528.34;5026796;28;21240;-74
2021/11/25 10:59:47;;;;;;;30.63;16.17;;;;;;;-0.27;100.00;95531.09;5032000;28;20443;-74
2021/11/25 11:02:30;;;;;;;32.87;18.40;;;;;;;-0.25;100.00;95525.78;5012709;28;20519;-74
2021/11/25 11:05:01;;;;;;;31.58;16.08;;;;;;;-0.27;100.00;95531.09;5026965;28;20463;-74
2021/11/25 11:07:35;;;;;;;30.97;15.17;;;;;;;-0.21;100.00;95521.22;5034995;28;20074;-75
2021/11/25 11:10:17;;;;;;;42.43;22.73;;;;;;;-0.27;100.00;95519.91;5025123;28;20460;-75
2021/11/25 11:13:59;;;;;;;30.07;14.27;;;;;;;-0.30;100.00;95522.72;5020533;28;20492;-75
2021/11/25 11:16:41;;;;;;;30.23;16.10;;;;;;;-0.25;100.00;95518.84;5027248;28;21239;-74
2021/11/25 11:21:40;;;;;;;78.10;37.27;;;;;;;-0.19;100.00;95512.44;5031233;28;20556;-74